Pagina principale
METAR-TAF:

METAR-TAF

Aeroporti :

Kimberley, Sudafrica

latitudine: 28-48S, longitudine: 024-46E, altezza: 1198 m

Osservazione

Il bollettino è stato emesso 1 ora e 5 minuti fa, alle 23:00 UTC
Vento 11 kt da sud/sud-est
Temperature 21°C
Umidità 35%
Pressione 1012 hPa

METAR: FAKM 222300Z AUTO 15011KT //// // ////// 21/05 Q1012

Ora: 02:05 (00:05 UTC)

Previsione

Il bollettino è stato emesso 15 ore e 5 minuti fa, alle 09:00 UTC
Previsione valida dal 22 alle 10 UTC al 22 alle 18 UTC
Vento 10 kt da ovest/nord-ovest
Visibilità 10 km o più
nessuna nube inferiore a 1500 m e nessun cumulonembo

TAF: FAKM 220900Z 2210/2218 30010KT CAVOK TX33/2213Z TN26/2218Z

Osservazioni e previsioni meteorologiche di più di 4000 aeroporti (messaggi METAR e TAF).

Le stazioni disponibili sono rappresentate dai dischi gialli e rossi sulla carta.

Puntare il mouse per vedere il nome della stazione.

Clicca sopra per visualizzare le osservazioni e previsioni meteorologiche.

Per cambiare la mappa : fare clic sui pulsanti verdi con una croce nera per ingrandire, il pulsante verde con un trattino per diminuire, o sulla freccia verde per le mappe adiacenti.


METAR-TAF: